sensor_id;sensor_type;location;lat;lon;timestamp;temperature;humidity
4399;DHT22;2213;49.720;7.296;2022-07-29T00:00:05;19.60;92.70
4399;DHT22;2213;49.720;7.296;2022-07-29T00:02:38;19.60;92.70
4399;DHT22;2213;49.720;7.296;2022-07-29T00:05:08;19.60;92.70
4399;DHT22;2213;49.720;7.296;2022-07-29T00:07:40;19.50;92.70
4399;DHT22;2213;49.720;7.296;2022-07-29T00:10:09;19.50;92.80
4399;DHT22;2213;49.720;7.296;2022-07-29T00:12:38;19.40;92.80
4399;DHT22;2213;49.720;7.296;2022-07-29T00:15:08;19.40;92.80
4399;DHT22;2213;49.720;7.296;2022-07-29T00:17:38;19.50;92.70
4399;DHT22;2213;49.720;7.296;2022-07-29T00:20:08;19.40;92.70
4399;DHT22;2213;49.720;7.296;2022-07-29T00:22:38;19.30;92.90
4399;DHT22;2213;49.720;7.296;2022-07-29T00:25:07;19.30;92.90
4399;DHT22;2213;49.720;7.296;2022-07-29T00:27:36;19.20;93.20
4399;DHT22;2213;49.720;7.296;2022-07-29T00:30:07;19.10;93.20
4399;DHT22;2213;49.720;7.296;2022-07-29T00:32:37;19.10;93.10
4399;DHT22;2213;49.720;7.296;2022-07-29T00:35:07;19.10;93.20
4399;DHT22;2213;49.720;7.296;2022-07-29T00:37:53;19.10;93.20
4399;DHT22;2213;49.720;7.296;2022-07-29T00:40:22;19.10;93.30
4399;DHT22;2213;49.720;7.296;2022-07-29T00:42:52;19.00;93.40
4399;DHT22;2213;49.720;7.296;2022-07-29T00:45:21;19.00;93.50
4399;DHT22;2213;49.720;7.296;2022-07-29T00:47:51;19.00;93.40
4399;DHT22;2213;49.720;7.296;2022-07-29T00:50:20;18.90;93.60
4399;DHT22;2213;49.720;7.296;2022-07-29T00:52:49;18.90;93.70
4399;DHT22;2213;49.720;7.296;2022-07-29T00:55:19;18.80;93.80
4399;DHT22;2213;49.720;7.296;2022-07-29T00:57:49;18.90;93.80
4399;DHT22;2213;49.720;7.296;2022-07-29T01:00:22;18.70;93.80
4399;DHT22;2213;49.720;7.296;2022-07-29T01:02:54;18.70;93.80
4399;DHT22;2213;49.720;7.296;2022-07-29T01:05:24;18.60;94.00
4399;DHT22;2213;49.720;7.296;2022-07-29T01:08:16;18.60;93.90
4399;DHT22;2213;49.720;7.296;2022-07-29T01:10:46;18.60;94.00
4399;DHT22;2213;49.720;7.296;2022-07-29T01:13:16;18.60;94.00
4399;DHT22;2213;49.720;7.296;2022-07-29T01:15:49;18.50;94.00
4399;DHT22;2213;49.720;7.296;2022-07-29T01:18:31;18.50;94.00
4399;DHT22;2213;49.720;7.296;2022-07-29T01:21:24;18.50;93.90
4399;DHT22;2213;49.720;7.296;2022-07-29T01:24:19;18.40;93.90
4399;DHT22;2213;49.720;7.296;2022-07-29T01:27:19;18.40;93.80
4399;DHT22;2213;49.720;7.296;2022-07-29T01:30:09;18.40;93.80
4399;DHT22;2213;49.720;7.296;2022-07-29T01:32:43;18.40;93.80
4399;DHT22;2213;49.720;7.296;2022-07-29T01:35:22;18.30;94.00
4399;DHT22;2213;49.720;7.296;2022-07-29T01:38:05;18.20;94.00
4399;DHT22;2213;49.720;7.296;2022-07-29T01:40:40;18.20;94.00
4399;DHT22;2213;49.720;7.296;2022-07-29T01:43:16;18.00;94.30
4399;DHT22;2213;49.720;7.296;2022-07-29T01:45:55;18.00;94.40
4399;DHT22;2213;49.720;7.296;2022-07-29T01:48:36;17.90;94.50
4399;DHT22;2213;49.720;7.296;2022-07-29T01:51:13;17.90;94.40
4399;DHT22;2213;49.720;7.296;2022-07-29T01:53:50;18.00;94.30
4399;DHT22;2213;49.720;7.296;2022-07-29T01:56:24;17.90;94.40
4399;DHT22;2213;49.720;7.296;2022-07-29T01:58:58;17.90;94.50
4399;DHT22;2213;49.720;7.296;2022-07-29T02:01:32;17.90;94.50
4399;DHT22;2213;49.720;7.296;2022-07-29T02:04:05;17.90;94.50
4399;DHT22;2213;49.720;7.296;2022-07-29T02:06:57;17.80;94.70
4399;DHT22;2213;49.720;7.296;2022-07-29T02:09:32;17.80;94.70
4399;DHT22;2213;49.720;7.296;2022-07-29T02:12:04;17.70;94.70
4399;DHT22;2213;49.720;7.296;2022-07-29T02:14:39;17.70;94.70
4399;DHT22;2213;49.720;7.296;2022-07-29T02:17:12;17.60;94.80
4399;DHT22;2213;49.720;7.296;2022-07-29T02:19:46;17.60;94.90
4399;DHT22;2213;49.720;7.296;2022-07-29T02:22:18;17.50;95.00
4399;DHT22;2213;49.720;7.296;2022-07-29T02:24:51;17.50;95.20
4399;DHT22;2213;49.720;7.296;2022-07-29T02:27:22;17.50;95.00
4399;DHT22;2213;49.720;7.296;2022-07-29T02:29:55;17.50;95.00
4399;DHT22;2213;49.720;7.296;2022-07-29T02:32:28;17.40;95.20
4399;DHT22;2213;49.720;7.296;2022-07-29T02:35:00;17.40;95.20
4399;DHT22;2213;49.720;7.296;2022-07-29T02:37:31;17.40;95.20
4399;DHT22;2213;49.720;7.296;2022-07-29T02:40:02;17.30;95.20
4399;DHT22;2213;49.720;7.296;2022-07-29T02:42:33;17.30;95.50
4399;DHT22;2213;49.720;7.296;2022-07-29T02:45:07;17.30;95.20
4399;DHT22;2213;49.720;7.296;2022-07-29T02:47:41;17.30;95.30
4399;DHT22;2213;49.720;7.296;2022-07-29T02:50:14;17.20;95.40
4399;DHT22;2213;49.720;7.296;2022-07-29T02:52:52;17.20;95.50
4399;DHT22;2213;49.720;7.296;2022-07-29T02:55:28;17.20;95.40
4399;DHT22;2213;49.720;7.296;2022-07-29T02:58:02;17.20;95.40
4399;DHT22;2213;49.720;7.296;2022-07-29T03:00:37;17.20;95.40
4399;DHT22;2213;49.720;7.296;2022-07-29T03:03:12;17.20;95.40
4399;DHT22;2213;49.720;7.296;2022-07-29T03:05:42;17.20;95.50
4399;DHT22;2213;49.720;7.296;2022-07-29T03:08:12;17.20;95.40
4399;DHT22;2213;49.720;7.296;2022-07-29T03:10:44;17.20;95.70
4399;DHT22;2213;49.720;7.296;2022-07-29T03:13:14;17.10;95.70
4399;DHT22;2213;49.720;7.296;2022-07-29T03:15:45;17.10;95.70
4399;DHT22;2213;49.720;7.296;2022-07-29T03:18:16;17.10;95.80
4399;DHT22;2213;49.720;7.296;2022-07-29T03:20:46;17.10;95.80
4399;DHT22;2213;49.720;7.296;2022-07-29T03:23:18;17.20;95.70
4399;DHT22;2213;49.720;7.296;2022-07-29T03:25:51;17.20;95.50
4399;DHT22;2213;49.720;7.296;2022-07-29T03:28:23;17.30;95.50
4399;DHT22;2213;49.720;7.296;2022-07-29T03:30:54;17.20;95.60
4399;DHT22;2213;49.720;7.296;2022-07-29T03:33:26;17.20;95.60
4399;DHT22;2213;49.720;7.296;2022-07-29T03:35:57;17.20;95.50
4399;DHT22;2213;49.720;7.296;2022-07-29T03:38:29;17.20;95.70
4399;DHT22;2213;49.720;7.296;2022-07-29T03:41:00;17.20;95.70
4399;DHT22;2213;49.720;7.296;2022-07-29T03:43:37;17.20;95.60
4399;DHT22;2213;49.720;7.296;2022-07-29T03:46:16;17.20;95.70
4399;DHT22;2213;49.720;7.296;2022-07-29T03:48:54;17.20;95.70
4399;DHT22;2213;49.720;7.296;2022-07-29T03:51:27;17.20;95.60
4399;DHT22;2213;49.720;7.296;2022-07-29T03:54:00;17.20;95.60
4399;DHT22;2213;49.720;7.296;2022-07-29T03:56:39;17.20;95.80
4399;DHT22;2213;49.720;7.296;2022-07-29T03:59:11;17.30;95.70
4399;DHT22;2213;49.720;7.296;2022-07-29T04:01:43;17.20;95.70
4399;DHT22;2213;49.720;7.296;2022-07-29T04:04:16;17.30;95.60
4399;DHT22;2213;49.720;7.296;2022-07-29T04:06:46;17.30;95.50
4399;DHT22;2213;49.720;7.296;2022-07-29T04:09:20;17.30;95.50
4399;DHT22;2213;49.720;7.296;2022-07-29T04:11:50;17.30;95.60
4399;DHT22;2213;49.720;7.296;2022-07-29T04:14:28;17.30;95.40
4399;DHT22;2213;49.720;7.296;2022-07-29T04:16:57;17.30;95.50
4399;DHT22;2213;49.720;7.296;2022-07-29T04:19:27;17.30;95.40
4399;DHT22;2213;49.720;7.296;2022-07-29T04:21:56;17.30;95.60
4399;DHT22;2213;49.720;7.296;2022-07-29T04:24:25;17.40;95.50
4399;DHT22;2213;49.720;7.296;2022-07-29T04:26:54;17.40;95.60
4399;DHT22;2213;49.720;7.296;2022-07-29T04:29:23;17.40;95.60
4399;DHT22;2213;49.720;7.296;2022-07-29T04:31:52;17.40;95.70
4399;DHT22;2213;49.720;7.296;2022-07-29T04:34:21;17.30;95.60
4399;DHT22;2213;49.720;7.296;2022-07-29T04:36:55;17.30;95.60
4399;DHT22;2213;49.720;7.296;2022-07-29T04:39:24;17.40;95.60
4399;DHT22;2213;49.720;7.296;2022-07-29T04:41:56;17.40;95.60
4399;DHT22;2213;49.720;7.296;2022-07-29T04:44:25;17.30;95.70
4399;DHT22;2213;49.720;7.296;2022-07-29T04:46:56;17.40;95.80
4399;DHT22;2213;49.720;7.296;2022-07-29T04:49:25;17.40;95.70
4399;DHT22;2213;49.720;7.296;2022-07-29T04:51:55;17.40;95.80
4399;DHT22;2213;49.720;7.296;2022-07-29T04:54:25;17.40;95.70
4399;DHT22;2213;49.720;7.296;2022-07-29T04:56:55;17.40;95.70
4399;DHT22;2213;49.720;7.296;2022-07-29T04:59:24;17.40;95.70
4399;DHT22;2213;49.720;7.296;2022-07-29T05:01:54;17.40;95.70
4399;DHT22;2213;49.720;7.296;2022-07-29T05:04:23;17.40;95.70
4399;DHT22;2213;49.720;7.296;2022-07-29T05:06:53;17.50;95.60
4399;DHT22;2213;49.720;7.296;2022-07-29T05:09:23;17.40;95.80
4399;DHT22;2213;49.720;7.296;2022-07-29T05:11:52;17.40;95.90
4399;DHT22;2213;49.720;7.296;2022-07-29T05:14:20;17.40;95.80
4399;DHT22;2213;49.720;7.296;2022-07-29T05:16:50;17.40;95.90
4399;DHT22;2213;49.720;7.296;2022-07-29T05:19:20;17.50;95.80
4399;DHT22;2213;49.720;7.296;2022-07-29T05:21:48;17.50;95.90
4399;DHT22;2213;49.720;7.296;2022-07-29T05:24:19;17.60;95.90
4399;DHT22;2213;49.720;7.296;2022-07-29T05:26:48;17.50;96.00
4399;DHT22;2213;49.720;7.296;2022-07-29T05:29:17;17.60;95.90
4399;DHT22;2213;49.720;7.296;2022-07-29T05:32:06;17.60;96.00
4399;DHT22;2213;49.720;7.296;2022-07-29T05:34:34;17.60;96.00
4399;DHT22;2213;49.720;7.296;2022-07-29T05:37:17;17.60;95.90
4399;DHT22;2213;49.720;7.296;2022-07-29T05:39:48;17.60;96.00
4399;DHT22;2213;49.720;7.296;2022-07-29T05:42:23;17.70;95.80
4399;DHT22;2213;49.720;7.296;2022-07-29T05:44:53;17.80;95.70
4399;DHT22;2213;49.720;7.296;2022-07-29T05:47:22;17.80;95.70
4399;DHT22;2213;49.720;7.296;2022-07-29T05:49:52;17.90;95.90
4399;DHT22;2213;49.720;7.296;2022-07-29T05:52:21;17.90;95.90
4399;DHT22;2213;49.720;7.296;2022-07-29T05:54:51;18.00;95.90
4399;DHT22;2213;49.720;7.296;2022-07-29T05:57:21;18.10;95.70
4399;DHT22;2213;49.720;7.296;2022-07-29T05:59:51;18.10;96.00
4399;DHT22;2213;49.720;7.296;2022-07-29T06:02:20;18.20;95.50
4399;DHT22;2213;49.720;7.296;2022-07-29T06:04:49;18.20;95.30
4399;DHT22;2213;49.720;7.296;2022-07-29T06:07:18;18.30;95.30
4399;DHT22;2213;49.720;7.296;2022-07-29T06:09:47;18.30;95.10
4399;DHT22;2213;49.720;7.296;2022-07-29T06:12:17;18.40;95.20
4399;DHT22;2213;49.720;7.296;2022-07-29T06:14:46;18.40;95.30
4399;DHT22;2213;49.720;7.296;2022-07-29T06:17:20;18.50;95.70
4399;DHT22;2213;49.720;7.296;2022-07-29T06:19:49;18.60;95.20
4399;DHT22;2213;49.720;7.296;2022-07-29T06:22:17;18.70;95.30
4399;DHT22;2213;49.720;7.296;2022-07-29T06:24:47;18.60;95.60
4399;DHT22;2213;49.720;7.296;2022-07-29T06:27:17;18.70;95.50
4399;DHT22;2213;49.720;7.296;2022-07-29T06:29:46;18.70;95.50
4399;DHT22;2213;49.720;7.296;2022-07-29T06:32:14;18.70;95.40
4399;DHT22;2213;49.720;7.296;2022-07-29T06:34:44;18.80;95.40
4399;DHT22;2213;49.720;7.296;2022-07-29T06:37:14;18.80;95.50
4399;DHT22;2213;49.720;7.296;2022-07-29T06:39:45;18.80;95.60
4399;DHT22;2213;49.720;7.296;2022-07-29T06:42:14;18.80;95.50
4399;DHT22;2213;49.720;7.296;2022-07-29T06:44:44;18.80;95.80
4399;DHT22;2213;49.720;7.296;2022-07-29T06:47:13;18.90;95.70
4399;DHT22;2213;49.720;7.296;2022-07-29T06:49:42;18.90;95.70
4399;DHT22;2213;49.720;7.296;2022-07-29T06:52:11;19.00;95.50
4399;DHT22;2213;49.720;7.296;2022-07-29T06:54:39;19.00;95.60
4399;DHT22;2213;49.720;7.296;2022-07-29T06:57:15;19.10;95.50
4399;DHT22;2213;49.720;7.296;2022-07-29T06:59:46;19.10;95.30
4399;DHT22;2213;49.720;7.296;2022-07-29T07:02:15;19.20;94.80
4399;DHT22;2213;49.720;7.296;2022-07-29T07:04:44;19.20;94.60
4399;DHT22;2213;49.720;7.296;2022-07-29T07:07:15;19.30;94.70
4399;DHT22;2213;49.720;7.296;2022-07-29T07:09:44;19.30;94.60
4399;DHT22;2213;49.720;7.296;2022-07-29T07:12:13;19.30;94.50
4399;DHT22;2213;49.720;7.296;2022-07-29T07:14:42;19.40;94.00
4399;DHT22;2213;49.720;7.296;2022-07-29T07:17:13;19.50;93.80
4399;DHT22;2213;49.720;7.296;2022-07-29T07:19:41;19.50;92.30
4399;DHT22;2213;49.720;7.296;2022-07-29T07:22:11;19.50;92.80
4399;DHT22;2213;49.720;7.296;2022-07-29T07:24:40;19.50;91.40
4399;DHT22;2213;49.720;7.296;2022-07-29T07:27:09;19.60;91.60
4399;DHT22;2213;49.720;7.296;2022-07-29T07:29:37;19.60;91.20
4399;DHT22;2213;49.720;7.296;2022-07-29T07:32:10;19.70;91.90
4399;DHT22;2213;49.720;7.296;2022-07-29T07:34:41;19.70;91.70
4399;DHT22;2213;49.720;7.296;2022-07-29T07:37:10;19.80;91.70
4399;DHT22;2213;49.720;7.296;2022-07-29T07:39:38;19.90;91.70
4399;DHT22;2213;49.720;7.296;2022-07-29T07:42:07;19.90;90.10
4399;DHT22;2213;49.720;7.296;2022-07-29T07:44:38;20.10;90.50
4399;DHT22;2213;49.720;7.296;2022-07-29T07:47:27;20.00;90.50
4399;DHT22;2213;49.720;7.296;2022-07-29T07:50:01;20.20;90.40
4399;DHT22;2213;49.720;7.296;2022-07-29T07:52:31;20.30;90.50
4399;DHT22;2213;49.720;7.296;2022-07-29T07:55:00;20.40;90.10
4399;DHT22;2213;49.720;7.296;2022-07-29T07:57:29;20.40;89.90
4399;DHT22;2213;49.720;7.296;2022-07-29T07:59:57;20.40;90.40
4399;DHT22;2213;49.720;7.296;2022-07-29T08:02:26;20.50;90.30
4399;DHT22;2213;49.720;7.296;2022-07-29T08:04:54;20.60;90.20
4399;DHT22;2213;49.720;7.296;2022-07-29T08:07:24;20.80;90.00
4399;DHT22;2213;49.720;7.296;2022-07-29T08:09:54;20.80;89.10
4399;DHT22;2213;49.720;7.296;2022-07-29T08:12:23;20.90;89.50
4399;DHT22;2213;49.720;7.296;2022-07-29T08:14:51;20.90;89.10
4399;DHT22;2213;49.720;7.296;2022-07-29T08:17:20;20.90;88.70
4399;DHT22;2213;49.720;7.296;2022-07-29T08:19:50;21.00;89.30
4399;DHT22;2213;49.720;7.296;2022-07-29T08:22:19;21.00;89.60
4399;DHT22;2213;49.720;7.296;2022-07-29T08:24:49;21.10;89.30
4399;DHT22;2213;49.720;7.296;2022-07-29T08:27:23;21.20;89.90
4399;DHT22;2213;49.720;7.296;2022-07-29T08:30:10;21.20;90.00
4399;DHT22;2213;49.720;7.296;2022-07-29T08:32:39;21.20;89.50
4399;DHT22;2213;49.720;7.296;2022-07-29T08:35:24;21.40;90.00
4399;DHT22;2213;49.720;7.296;2022-07-29T08:37:53;21.40;89.90
4399;DHT22;2213;49.720;7.296;2022-07-29T08:40:25;21.40;89.80
4399;DHT22;2213;49.720;7.296;2022-07-29T08:42:58;21.50;89.80
4399;DHT22;2213;49.720;7.296;2022-07-29T08:45:28;21.70;89.30
4399;DHT22;2213;49.720;7.296;2022-07-29T08:47:57;21.70;88.90
4399;DHT22;2213;49.720;7.296;2022-07-29T08:50:27;21.70;88.70
4399;DHT22;2213;49.720;7.296;2022-07-29T08:52:56;21.70;89.30
4399;DHT22;2213;49.720;7.296;2022-07-29T08:55:28;21.80;89.30
4399;DHT22;2213;49.720;7.296;2022-07-29T08:57:57;21.80;89.50
4399;DHT22;2213;49.720;7.296;2022-07-29T09:00:27;21.90;89.20
4399;DHT22;2213;49.720;7.296;2022-07-29T09:02:58;21.90;88.90
4399;DHT22;2213;49.720;7.296;2022-07-29T09:05:28;22.00;89.00
4399;DHT22;2213;49.720;7.296;2022-07-29T09:08:01;22.10;88.70
4399;DHT22;2213;49.720;7.296;2022-07-29T09:10:31;22.30;88.70
4399;DHT22;2213;49.720;7.296;2022-07-29T09:13:00;22.40;87.90
4399;DHT22;2213;49.720;7.296;2022-07-29T09:15:29;22.40;87.50
4399;DHT22;2213;49.720;7.296;2022-07-29T09:17:59;22.40;87.80
4399;DHT22;2213;49.720;7.296;2022-07-29T09:20:29;22.50;87.50
4399;DHT22;2213;49.720;7.296;2022-07-29T09:23:18;22.50;87.20
4399;DHT22;2213;49.720;7.296;2022-07-29T09:25:52;22.70;87.00
4399;DHT22;2213;49.720;7.296;2022-07-29T09:28:20;22.60;87.00
4399;DHT22;2213;49.720;7.296;2022-07-29T09:30:51;22.60;87.10
4399;DHT22;2213;49.720;7.296;2022-07-29T09:33:22;22.80;86.80
4399;DHT22;2213;49.720;7.296;2022-07-29T09:35:59;22.80;87.00
4399;DHT22;2213;49.720;7.296;2022-07-29T09:38:32;22.90;87.30
4399;DHT22;2213;49.720;7.296;2022-07-29T09:41:04;23.00;87.40
4399;DHT22;2213;49.720;7.296;2022-07-29T09:43:35;23.00;87.00
4399;DHT22;2213;49.720;7.296;2022-07-29T09:46:10;23.10;86.60
4399;DHT22;2213;49.720;7.296;2022-07-29T09:48:39;23.10;86.30
4399;DHT22;2213;49.720;7.296;2022-07-29T09:51:17;23.10;86.30
4399;DHT22;2213;49.720;7.296;2022-07-29T09:53:54;23.10;84.90
4399;DHT22;2213;49.720;7.296;2022-07-29T09:56:38;23.20;85.80
4399;DHT22;2213;49.720;7.296;2022-07-29T09:59:08;23.40;85.70
4399;DHT22;2213;49.720;7.296;2022-07-29T10:01:38;23.40;85.50
4399;DHT22;2213;49.720;7.296;2022-07-29T10:04:06;23.30;85.40
4399;DHT22;2213;49.720;7.296;2022-07-29T10:06:35;23.40;86.00
4399;DHT22;2213;49.720;7.296;2022-07-29T10:09:30;23.40;85.80
4399;DHT22;2213;49.720;7.296;2022-07-29T10:12:25;23.70;86.00
4399;DHT22;2213;49.720;7.296;2022-07-29T10:14:55;23.80;85.70
4399;DHT22;2213;49.720;7.296;2022-07-29T10:17:24;24.00;84.90
4399;DHT22;2213;49.720;7.296;2022-07-29T10:19:53;23.90;84.40
4399;DHT22;2213;49.720;7.296;2022-07-29T10:22:22;24.10;83.90
4399;DHT22;2213;49.720;7.296;2022-07-29T10:25:11;24.10;84.00
4399;DHT22;2213;49.720;7.296;2022-07-29T10:27:42;24.10;84.00
4399;DHT22;2213;49.720;7.296;2022-07-29T10:30:12;24.00;83.40
4399;DHT22;2213;49.720;7.296;2022-07-29T10:32:54;24.00;83.90
4399;DHT22;2213;49.720;7.296;2022-07-29T10:35:38;24.10;84.00
4399;DHT22;2213;49.720;7.296;2022-07-29T10:38:39;24.10;83.70
4399;DHT22;2213;49.720;7.296;2022-07-29T10:41:30;24.20;83.90
4399;DHT22;2213;49.720;7.296;2022-07-29T10:44:16;24.30;83.70
4399;DHT22;2213;49.720;7.296;2022-07-29T10:46:53;24.50;84.30
4399;DHT22;2213;49.720;7.296;2022-07-29T10:49:56;24.60;84.20
4399;DHT22;2213;49.720;7.296;2022-07-29T10:52:53;24.70;83.30
4399;DHT22;2213;49.720;7.296;2022-07-29T10:55:34;24.80;82.70
4399;DHT22;2213;49.720;7.296;2022-07-29T10:58:14;24.80;82.60
4399;DHT22;2213;49.720;7.296;2022-07-29T11:00:48;24.90;81.90
4399;DHT22;2213;49.720;7.296;2022-07-29T11:03:43;24.90;81.80
4399;DHT22;2213;49.720;7.296;2022-07-29T11:06:17;25.00;81.10
4399;DHT22;2213;49.720;7.296;2022-07-29T11:09:16;25.10;80.40
4399;DHT22;2213;49.720;7.296;2022-07-29T11:12:01;25.20;80.80
4399;DHT22;2213;49.720;7.296;2022-07-29T11:14:56;25.00;80.40
4399;DHT22;2213;49.720;7.296;2022-07-29T11:17:30;25.10;81.00
4399;DHT22;2213;49.720;7.296;2022-07-29T11:20:44;25.10;80.60
4399;DHT22;2213;49.720;7.296;2022-07-29T11:23:22;25.40;80.10
4399;DHT22;2213;49.720;7.296;2022-07-29T11:26:17;25.60;79.50
4399;DHT22;2213;49.720;7.296;2022-07-29T11:29:18;25.70;80.00
4399;DHT22;2213;49.720;7.296;2022-07-29T11:31:51;25.80;79.90
4399;DHT22;2213;49.720;7.296;2022-07-29T11:34:25;25.90;79.00
4399;DHT22;2213;49.720;7.296;2022-07-29T11:37:21;26.10;79.20
4399;DHT22;2213;49.720;7.296;2022-07-29T11:40:16;26.20;79.00
4399;DHT22;2213;49.720;7.296;2022-07-29T11:42:48;26.20;78.30
4399;DHT22;2213;49.720;7.296;2022-07-29T11:45:22;26.30;78.80
4399;DHT22;2213;49.720;7.296;2022-07-29T11:48:16;26.20;78.50
4399;DHT22;2213;49.720;7.296;2022-07-29T11:51:10;26.30;78.00
4399;DHT22;2213;49.720;7.296;2022-07-29T11:53:39;26.20;77.90
4399;DHT22;2213;49.720;7.296;2022-07-29T11:56:13;26.40;77.10
4399;DHT22;2213;49.720;7.296;2022-07-29T11:59:03;26.20;76.90
4399;DHT22;2213;49.720;7.296;2022-07-29T12:01:34;26.10;77.00
4399;DHT22;2213;49.720;7.296;2022-07-29T12:04:04;26.30;76.80
4399;DHT22;2213;49.720;7.296;2022-07-29T12:06:35;26.50;76.50
4399;DHT22;2213;49.720;7.296;2022-07-29T12:09:08;26.40;76.00
4399;DHT22;2213;49.720;7.296;2022-07-29T12:11:40;26.40;76.50
4399;DHT22;2213;49.720;7.296;2022-07-29T12:14:27;26.50;77.10
4399;DHT22;2213;49.720;7.296;2022-07-29T12:16:57;26.40;76.20
4399;DHT22;2213;49.720;7.296;2022-07-29T12:19:26;26.40;76.00
4399;DHT22;2213;49.720;7.296;2022-07-29T12:21:58;26.60;76.70
4399;DHT22;2213;49.720;7.296;2022-07-29T12:24:42;26.70;77.10
4399;DHT22;2213;49.720;7.296;2022-07-29T12:27:12;26.90;76.50
4399;DHT22;2213;49.720;7.296;2022-07-29T12:29:56;27.00;76.00
4399;DHT22;2213;49.720;7.296;2022-07-29T12:32:31;27.00;75.60
4399;DHT22;2213;49.720;7.296;2022-07-29T12:35:03;27.10;75.60
4399;DHT22;2213;49.720;7.296;2022-07-29T12:37:37;27.10;75.70
4399;DHT22;2213;49.720;7.296;2022-07-29T12:40:10;27.00;74.00
4399;DHT22;2213;49.720;7.296;2022-07-29T12:42:41;27.00;74.10
4399;DHT22;2213;49.720;7.296;2022-07-29T12:45:33;26.80;73.90
4399;DHT22;2213;49.720;7.296;2022-07-29T12:48:04;26.90;73.80
4399;DHT22;2213;49.720;7.296;2022-07-29T12:50:36;26.80;73.00
4399;DHT22;2213;49.720;7.296;2022-07-29T12:53:21;26.70;73.30
4399;DHT22;2213;49.720;7.296;2022-07-29T12:55:51;26.60;71.70
4399;DHT22;2213;49.720;7.296;2022-07-29T12:58:28;26.70;71.90
4399;DHT22;2213;49.720;7.296;2022-07-29T13:01:08;26.60;71.10
4399;DHT22;2213;49.720;7.296;2022-07-29T13:03:49;26.70;72.30
4399;DHT22;2213;49.720;7.296;2022-07-29T13:06:35;26.90;71.40
4399;DHT22;2213;49.720;7.296;2022-07-29T13:09:10;26.80;72.10
4399;DHT22;2213;49.720;7.296;2022-07-29T13:11:43;26.90;71.80
4399;DHT22;2213;49.720;7.296;2022-07-29T13:14:29;26.90;71.60
4399;DHT22;2213;49.720;7.296;2022-07-29T13:17:02;26.80;70.60
4399;DHT22;2213;49.720;7.296;2022-07-29T13:19:35;26.80;69.80
4399;DHT22;2213;49.720;7.296;2022-07-29T13:22:08;26.90;69.40
4399;DHT22;2213;49.720;7.296;2022-07-29T13:24:50;26.70;69.50
4399;DHT22;2213;49.720;7.296;2022-07-29T13:27:21;27.00;70.00
4399;DHT22;2213;49.720;7.296;2022-07-29T13:29:51;27.00;69.10
4399;DHT22;2213;49.720;7.296;2022-07-29T13:32:23;27.00;69.90
4399;DHT22;2213;49.720;7.296;2022-07-29T13:34:55;27.10;73.30
4399;DHT22;2213;49.720;7.296;2022-07-29T13:37:25;27.20;74.70
4399;DHT22;2213;49.720;7.296;2022-07-29T13:39:58;27.00;74.80
4399;DHT22;2213;49.720;7.296;2022-07-29T13:42:27;26.90;75.90
4399;DHT22;2213;49.720;7.296;2022-07-29T13:44:56;27.00;76.40
4399;DHT22;2213;49.720;7.296;2022-07-29T13:47:26;27.10;76.40
4399;DHT22;2213;49.720;7.296;2022-07-29T13:50:00;27.00;75.00
4399;DHT22;2213;49.720;7.296;2022-07-29T13:52:31;27.30;71.10
4399;DHT22;2213;49.720;7.296;2022-07-29T13:55:02;27.30;69.10
4399;DHT22;2213;49.720;7.296;2022-07-29T13:57:31;27.50;68.90
4399;DHT22;2213;49.720;7.296;2022-07-29T14:00:00;27.30;66.20
4399;DHT22;2213;49.720;7.296;2022-07-29T14:02:30;27.40;65.90
4399;DHT22;2213;49.720;7.296;2022-07-29T14:04:59;27.60;66.20
4399;DHT22;2213;49.720;7.296;2022-07-29T14:07:34;27.70;64.40
4399;DHT22;2213;49.720;7.296;2022-07-29T14:10:05;27.60;64.90
4399;DHT22;2213;49.720;7.296;2022-07-29T14:12:35;27.70;65.70
4399;DHT22;2213;49.720;7.296;2022-07-29T14:15:06;27.70;65.50
4399;DHT22;2213;49.720;7.296;2022-07-29T14:17:35;27.80;66.00
4399;DHT22;2213;49.720;7.296;2022-07-29T14:20:04;27.90;65.60
4399;DHT22;2213;49.720;7.296;2022-07-29T14:22:34;27.90;65.80
4399;DHT22;2213;49.720;7.296;2022-07-29T14:25:12;27.90;65.90
4399;DHT22;2213;49.720;7.296;2022-07-29T14:27:41;27.80;66.30
4399;DHT22;2213;49.720;7.296;2022-07-29T14:30:12;27.90;66.40
4399;DHT22;2213;49.720;7.296;2022-07-29T14:32:41;27.70;65.80
4399;DHT22;2213;49.720;7.296;2022-07-29T14:35:10;27.60;65.50
4399;DHT22;2213;49.720;7.296;2022-07-29T14:37:38;27.70;66.20
4399;DHT22;2213;49.720;7.296;2022-07-29T14:40:08;27.70;66.10
4399;DHT22;2213;49.720;7.296;2022-07-29T14:42:39;27.80;66.40
4399;DHT22;2213;49.720;7.296;2022-07-29T14:45:09;27.80;66.40
4399;DHT22;2213;49.720;7.296;2022-07-29T14:47:38;27.70;66.70
4399;DHT22;2213;49.720;7.296;2022-07-29T14:50:08;27.70;67.00
4399;DHT22;2213;49.720;7.296;2022-07-29T14:52:38;27.70;65.60
4399;DHT22;2213;49.720;7.296;2022-07-29T14:55:07;27.70;66.00
4399;DHT22;2213;49.720;7.296;2022-07-29T14:57:47;27.50;65.80
4399;DHT22;2213;49.720;7.296;2022-07-29T15:00:17;27.50;66.40
4399;DHT22;2213;49.720;7.296;2022-07-29T15:02:48;27.50;67.60
4399;DHT22;2213;49.720;7.296;2022-07-29T15:05:28;27.50;67.70
4399;DHT22;2213;49.720;7.296;2022-07-29T15:07:58;27.50;67.50
4399;DHT22;2213;49.720;7.296;2022-07-29T15:10:27;27.60;68.60
4399;DHT22;2213;49.720;7.296;2022-07-29T15:12:57;27.60;69.10
4399;DHT22;2213;49.720;7.296;2022-07-29T15:15:26;27.60;69.10
4399;DHT22;2213;49.720;7.296;2022-07-29T15:17:54;27.50;69.70
4399;DHT22;2213;49.720;7.296;2022-07-29T15:20:23;27.40;69.90
4399;DHT22;2213;49.720;7.296;2022-07-29T15:22:54;27.40;70.60
4399;DHT22;2213;49.720;7.296;2022-07-29T15:25:25;27.30;70.20
4399;DHT22;2213;49.720;7.296;2022-07-29T15:27:54;27.50;70.00
4399;DHT22;2213;49.720;7.296;2022-07-29T15:30:29;27.60;69.80
4399;DHT22;2213;49.720;7.296;2022-07-29T15:33:01;27.60;70.20
4399;DHT22;2213;49.720;7.296;2022-07-29T15:35:31;27.80;69.60
4399;DHT22;2213;49.720;7.296;2022-07-29T15:38:06;27.90;69.40
4399;DHT22;2213;49.720;7.296;2022-07-29T15:40:37;27.90;69.40
4399;DHT22;2213;49.720;7.296;2022-07-29T15:43:07;28.10;68.80
4399;DHT22;2213;49.720;7.296;2022-07-29T15:45:38;28.00;68.80
4399;DHT22;2213;49.720;7.296;2022-07-29T15:48:09;28.00;68.50
4399;DHT22;2213;49.720;7.296;2022-07-29T15:50:40;28.00;68.00
4399;DHT22;2213;49.720;7.296;2022-07-29T15:53:13;27.90;70.00
4399;DHT22;2213;49.720;7.296;2022-07-29T15:55:43;27.90;70.80
4399;DHT22;2213;49.720;7.296;2022-07-29T15:58:11;27.90;71.20
4399;DHT22;2213;49.720;7.296;2022-07-29T16:00:42;27.90;70.50
4399;DHT22;2213;49.720;7.296;2022-07-29T16:03:10;27.90;70.40
4399;DHT22;2213;49.720;7.296;2022-07-29T16:05:39;27.70;70.40
4399;DHT22;2213;49.720;7.296;2022-07-29T16:08:08;27.80;71.20
4399;DHT22;2213;49.720;7.296;2022-07-29T16:10:37;27.70;71.60
4399;DHT22;2213;49.720;7.296;2022-07-29T16:13:05;27.60;72.10
4399;DHT22;2213;49.720;7.296;2022-07-29T16:15:34;27.60;71.20
4399;DHT22;2213;49.720;7.296;2022-07-29T16:18:05;27.80;71.80
4399;DHT22;2213;49.720;7.296;2022-07-29T16:20:35;28.00;70.10
4399;DHT22;2213;49.720;7.296;2022-07-29T16:23:04;28.00;69.50
4399;DHT22;2213;49.720;7.296;2022-07-29T16:25:33;28.00;69.40
4399;DHT22;2213;49.720;7.296;2022-07-29T16:28:22;27.90;69.10
4399;DHT22;2213;49.720;7.296;2022-07-29T16:30:50;27.90;68.20
4399;DHT22;2213;49.720;7.296;2022-07-29T16:33:21;27.90;69.00
4399;DHT22;2213;49.720;7.296;2022-07-29T16:35:51;28.10;69.00
4399;DHT22;2213;49.720;7.296;2022-07-29T16:38:20;28.00;68.70
4399;DHT22;2213;49.720;7.296;2022-07-29T16:40:48;28.10;65.40